Time;durP1;ratioP1;P1;durP2;ratioP2;P2;SDS_P1;SDS_P2;PMS_P1;PMS_P2;Temp;Humidity;BMP_temperature;BMP_pressure;BME280_temperature;BME280_humidity;BME280_pressure;Samples;Min_cycle;Max_cycle;Signal;HPM_P1;HPM_P2
2022/03/03 00:02:23;;;;;;;;;;;-2.30;99.90;;;;;;5020660;28;19920;-79
2022/03/03 00:04:49;;;;;;;;;;;-2.40;99.90;;;;;;5026785;28;20524;-78
2022/03/03 00:07:15;;;;;;;;;;;-2.40;99.90;;;;;;5027829;28;20284;-78
2022/03/03 00:09:40;;;;;;;;;;;-2.50;99.90;;;;;;5024850;28;20381;-78
2022/03/03 00:12:06;;;;;;;;;;;-2.50;99.90;;;;;;5026965;28;20391;-79
2022/03/03 00:14:32;;;;;;;;;;;-2.50;99.90;;;;;;5025814;28;19917;-78
2022/03/03 00:16:58;;;;;;;;;;;-2.50;99.90;;;;;;5015565;28;19956;-78
2022/03/03 00:19:23;;;;;;;;;;;-2.50;99.90;;;;;;5023532;28;19913;-78
2022/03/03 00:21:49;;;;;;;;;;;-2.50;99.90;;;;;;5026414;28;19913;-77
2022/03/03 00:24:15;;;;;;;;;;;-2.50;99.90;;;;;;5022682;28;19917;-79
2022/03/03 00:26:40;;;;;;;;;;;-2.60;99.90;;;;;;5027281;28;19996;-79
2022/03/03 00:29:06;;;;;;;;;;;-2.60;99.90;;;;;;5015956;28;19918;-79
2022/03/03 00:31:31;;;;;;;;;;;-2.60;99.90;;;;;;4997113;28;19928;-79
2022/03/03 00:33:57;;;;;;;;;;;-2.60;99.90;;;;;;5026122;28;19917;-78
2022/03/03 00:36:22;;;;;;;;;;;-2.60;99.90;;;;;;5024659;28;20395;-78
2022/03/03 00:38:48;;;;;;;;;;;-2.60;99.90;;;;;;5025363;28;20036;-78
2022/03/03 00:41:14;;;;;;;;;;;-2.60;99.90;;;;;;5026585;28;19909;-77
2022/03/03 00:43:40;;;;;;;;;;;-2.60;99.90;;;;;;5026853;28;20422;-78
2022/03/03 00:46:05;;;;;;;;;;;-2.70;99.90;;;;;;5021916;28;19925;-78
2022/03/03 00:48:31;;;;;;;;;;;-2.70;99.90;;;;;;5030275;28;20334;-79
2022/03/03 00:50:56;;;;;;;;;;;-2.70;99.90;;;;;;5031492;28;19917;-79
2022/03/03 00:53:23;;;;;;;;;;;-2.80;99.90;;;;;;5028543;28;20498;-79
2022/03/03 00:55:49;;;;;;;;;;;-2.90;99.90;;;;;;5010211;28;19917;-79
2022/03/03 00:58:14;;;;;;;;;;;-2.80;99.90;;;;;;5023077;28;19985;-78
2022/03/03 01:00:40;;;;;;;;;;;-2.80;99.90;;;;;;5027390;28;19925;-78
2022/03/03 01:03:05;;;;;;;;;;;-2.80;99.90;;;;;;5022740;28;19914;-79
2022/03/03 01:05:31;;;;;;;;;;;-2.90;99.90;;;;;;5022307;28;19920;-79
2022/03/03 01:07:58;;;;;;;;;;;-2.90;99.90;;;;;;5026563;28;20026;-79
2022/03/03 01:10:23;;;;;;;;;;;-2.80;99.90;;;;;;5023497;28;19967;-79
2022/03/03 01:12:49;;;;;;;;;;;-2.80;99.90;;;;;;5032086;28;20530;-77
2022/03/03 01:15:14;;;;;;;;;;;-2.90;99.90;;;;;;5030829;28;19924;-79
2022/03/03 01:17:40;;;;;;;;;;;-2.90;99.90;;;;;;5030140;28;19956;-78
2022/03/03 01:20:07;;;;;;;;;;;-3.00;99.90;;;;;;5026548;28;19917;-78
2022/03/03 01:22:33;;;;;;;;;;;-3.00;99.90;;;;;;5012879;28;19982;-77
2022/03/03 01:24:59;;;;;;;;;;;-3.00;99.90;;;;;;5024045;28;19914;-77
2022/03/03 01:27:24;;;;;;;;;;;-3.00;99.90;;;;;;5028626;28;19975;-77
2022/03/03 01:29:50;;;;;;;;;;;-3.00;99.90;;;;;;5028563;28;19932;-76
2022/03/03 01:32:16;;;;;;;;;;;-3.10;99.90;;;;;;5034186;28;19972;-79
2022/03/03 01:34:41;;;;;;;;;;;-3.10;99.90;;;;;;5044862;28;19924;-79
2022/03/03 01:37:07;;;;;;;;;;;-3.00;99.90;;;;;;5027473;28;19921;-79
2022/03/03 01:39:33;;;;;;;;;;;-3.00;99.90;;;;;;5024527;28;19914;-78
2022/03/03 01:41:59;;;;;;;;;;;-3.00;99.90;;;;;;5014835;28;19913;-78
2022/03/03 01:44:25;;;;;;;;;;;-3.00;99.90;;;;;;5024591;28;19944;-79
2022/03/03 01:46:55;;;;;;;;;;;-3.00;99.90;;;;;;5026012;28;20272;-78
2022/03/03 01:49:21;;;;;;;;;;;-3.00;99.90;;;;;;5026142;28;19925;-78
2022/03/03 01:51:47;;;;;;;;;;;-3.10;99.90;;;;;;5025761;28;20351;-79
2022/03/03 01:54:12;;;;;;;;;;;-3.10;99.90;;;;;;5026427;28;19918;-78
2022/03/03 01:56:39;;;;;;;;;;;-3.10;99.90;;;;;;5023322;28;19917;-78
2022/03/03 01:59:08;;;;;;;;;;;-3.00;99.90;;;;;;5022217;28;19917;-78
2022/03/03 02:01:35;;;;;;;;;;;-3.10;99.90;;;;;;5020969;28;19971;-79
2022/03/03 02:04:04;;;;;;;;;;;-3.10;99.90;;;;;;5016790;28;19925;-78
2022/03/03 02:06:29;;;;;;;;;;;-3.10;99.90;;;;;;5011544;28;20346;-78
2022/03/03 02:08:55;;;;;;;;;;;-3.10;99.90;;;;;;5025621;28;19996;-78
2022/03/03 02:11:21;;;;;;;;;;;-3.10;99.90;;;;;;5024032;28;19928;-79
2022/03/03 02:13:46;;;;;;;;;;;-3.10;99.90;;;;;;5022374;28;19937;-78
2022/03/03 02:16:12;;;;;;;;;;;-3.20;99.90;;;;;;5021651;28;19979;-79
2022/03/03 02:18:44;;;;;;;;;;;-3.20;99.90;;;;;;5024241;28;19979;-78
2022/03/03 02:21:13;;;;;;;;;;;-3.30;99.90;;;;;;5022646;28;19927;-77
2022/03/03 02:23:39;;;;;;;;;;;-3.30;99.90;;;;;;5029869;28;19917;-80
2022/03/03 02:26:07;;;;;;;;;;;-3.30;99.90;;;;;;5021442;28;19920;-78
2022/03/03 02:28:32;;;;;;;;;;;-3.30;99.90;;;;;;4999934;28;20296;-77
2022/03/03 02:30:58;;;;;;;;;;;-3.30;99.90;;;;;;5028732;28;19925;-79
2022/03/03 02:33:24;;;;;;;;;;;-3.30;99.90;;;;;;5025430;28;19957;-78
2022/03/03 02:35:49;;;;;;;;;;;-3.30;99.90;;;;;;5028362;28;19921;-78
2022/03/03 02:38:15;;;;;;;;;;;-3.30;99.90;;;;;;5028619;28;20015;-79
2022/03/03 02:40:40;;;;;;;;;;;-3.30;99.90;;;;;;5008520;28;20356;-78
2022/03/03 02:43:06;;;;;;;;;;;-3.30;99.90;;;;;;5024795;28;19966;-78
2022/03/03 02:45:32;;;;;;;;;;;-3.30;99.90;;;;;;5025024;28;20438;-78
2022/03/03 02:47:57;;;;;;;;;;;-3.40;99.90;;;;;;5028021;28;20394;-78
2022/03/03 02:50:26;;;;;;;;;;;-3.40;99.90;;;;;;5026125;28;19928;-78
2022/03/03 02:52:52;;;;;;;;;;;-3.40;99.90;;;;;;5033279;28;19917;-78
2022/03/03 02:55:18;;;;;;;;;;;-3.40;99.90;;;;;;5011531;28;19913;-78
2022/03/03 02:57:56;;;;;;;;;;;-3.40;99.90;;;;;;5012499;28;20291;-79
2022/03/03 03:00:21;;;;;;;;;;;-3.50;99.90;;;;;;5027700;28;19936;-77
2022/03/03 03:02:47;;;;;;;;;;;-3.50;99.90;;;;;;5023112;28;19917;-77
2022/03/03 03:05:12;;;;;;;;;;;-3.60;99.90;;;;;;5027405;28;19917;-79
2022/03/03 03:07:38;;;;;;;;;;;-3.60;99.90;;;;;;5028144;28;19917;-77
2022/03/03 03:10:04;;;;;;;;;;;-3.60;99.90;;;;;;5032505;28;19921;-77
2022/03/03 03:12:30;;;;;;;;;;;-3.50;99.90;;;;;;5027979;28;19913;-78
2022/03/03 03:14:56;;;;;;;;;;;-3.50;99.90;;;;;;5036614;28;19921;-79
2022/03/03 03:17:22;;;;;;;;;;;-3.60;99.90;;;;;;5027348;28;19917;-78
2022/03/03 03:19:48;;;;;;;;;;;-3.60;99.90;;;;;;5034750;28;19917;-78
2022/03/03 03:22:13;;;;;;;;;;;-3.60;99.90;;;;;;5025055;28;20008;-79
2022/03/03 03:24:39;;;;;;;;;;;-3.70;99.90;;;;;;5006932;28;19914;-77
2022/03/03 03:27:04;;;;;;;;;;;-3.70;99.90;;;;;;5017155;28;19913;-79
2022/03/03 03:29:30;;;;;;;;;;;-3.70;99.90;;;;;;5014353;28;19921;-79
2022/03/03 03:31:56;;;;;;;;;;;-3.70;99.90;;;;;;5033771;28;20306;-78
2022/03/03 03:34:21;;;;;;;;;;;-3.70;99.90;;;;;;5031682;28;20368;-78
2022/03/03 03:36:47;;;;;;;;;;;-3.70;99.90;;;;;;5033486;28;19975;-78
2022/03/03 03:39:13;;;;;;;;;;;-3.70;99.90;;;;;;5033560;28;19929;-78
2022/03/03 03:41:38;;;;;;;;;;;-3.80;99.90;;;;;;5033812;28;19917;-78
2022/03/03 03:44:04;;;;;;;;;;;-3.70;99.90;;;;;;5035850;28;19913;-78
2022/03/03 03:46:29;;;;;;;;;;;-3.60;99.90;;;;;;5013507;28;20388;-78
2022/03/03 03:48:55;;;;;;;;;;;-3.60;99.90;;;;;;5024960;28;19917;-79
2022/03/03 03:51:21;;;;;;;;;;;-3.70;99.90;;;;;;5026402;28;19944;-79
2022/03/03 03:53:46;;;;;;;;;;;-3.80;99.90;;;;;;5024311;28;19913;-79
2022/03/03 03:56:12;;;;;;;;;;;-3.90;99.90;;;;;;5022947;28;19918;-77
2022/03/03 03:58:38;;;;;;;;;;;-3.90;99.90;;;;;;5023100;28;20043;-78
2022/03/03 04:01:03;;;;;;;;;;;-3.90;99.90;;;;;;5030741;28;19926;-78
2022/03/03 04:03:29;;;;;;;;;;;-3.90;99.90;;;;;;5033788;28;19923;-78
2022/03/03 04:05:54;;;;;;;;;;;-3.90;99.90;;;;;;5024731;28;20573;-80
2022/03/03 04:08:20;;;;;;;;;;;-4.00;99.90;;;;;;5035262;28;19928;-79
2022/03/03 04:10:46;;;;;;;;;;;-4.00;99.90;;;;;;5034267;28;19917;-77
2022/03/03 04:13:11;;;;;;;;;;;-4.00;99.90;;;;;;5035120;28;19913;-77
2022/03/03 04:15:37;;;;;;;;;;;-4.00;99.90;;;;;;5034478;28;20311;-78
2022/03/03 04:18:03;;;;;;;;;;;-3.90;99.90;;;;;;5030447;28;20016;-77
2022/03/03 04:20:28;;;;;;;;;;;-3.90;99.90;;;;;;5030502;28;20387;-77
2022/03/03 04:22:54;;;;;;;;;;;-3.90;99.90;;;;;;5016220;28;19924;-77
2022/03/03 04:25:19;;;;;;;;;;;-3.90;99.90;;;;;;5021237;28;20311;-78
2022/03/03 04:27:45;;;;;;;;;;;-3.90;99.90;;;;;;5021495;28;20351;-78
2022/03/03 04:30:12;;;;;;;;;;;-4.00;99.90;;;;;;5011712;28;19929;-79
2022/03/03 04:32:38;;;;;;;;;;;-4.00;99.90;;;;;;5019268;28;19929;-78
2022/03/03 04:35:04;;;;;;;;;;;-4.00;99.90;;;;;;5006740;28;19978;-78
2022/03/03 04:37:29;;;;;;;;;;;-3.90;99.90;;;;;;5021116;28;19921;-78
2022/03/03 04:39:55;;;;;;;;;;;-4.00;99.90;;;;;;5021852;28;19917;-78
2022/03/03 04:42:20;;;;;;;;;;;-3.90;99.90;;;;;;5009991;28;19925;-78
2022/03/03 04:44:46;;;;;;;;;;;-3.90;99.90;;;;;;5026211;28;20434;-79
2022/03/03 04:47:11;;;;;;;;;;;-3.90;99.90;;;;;;5003877;28;20429;-80
2022/03/03 04:49:37;;;;;;;;;;;-4.00;99.90;;;;;;4999875;28;19964;-78
2022/03/03 04:52:03;;;;;;;;;;;-4.00;99.90;;;;;;5016692;28;20294;-79
2022/03/03 04:54:28;;;;;;;;;;;-3.90;99.90;;;;;;5025361;28;19928;-78
2022/03/03 04:56:55;;;;;;;;;;;-4.00;99.90;;;;;;5024173;28;19925;-79
2022/03/03 04:59:23;;;;;;;;;;;-4.00;99.90;;;;;;5025913;28;19920;-78
2022/03/03 05:01:49;;;;;;;;;;;-4.00;99.90;;;;;;5024604;28;19913;-78
2022/03/03 05:04:14;;;;;;;;;;;-4.00;99.90;;;;;;5029859;28;19917;-79
2022/03/03 05:06:40;;;;;;;;;;;-4.00;99.90;;;;;;5032134;28;19989;-80
2022/03/03 05:09:06;;;;;;;;;;;-4.10;99.90;;;;;;5036474;28;19913;-79
2022/03/03 05:11:31;;;;;;;;;;;-4.10;99.90;;;;;;5036412;28;19921;-78
2022/03/03 05:13:57;;;;;;;;;;;-4.20;99.90;;;;;;5033782;28;19917;-79
2022/03/03 05:16:22;;;;;;;;;;;-4.20;99.90;;;;;;5035955;28;19970;-80
2022/03/03 05:18:48;;;;;;;;;;;-4.20;99.90;;;;;;5036069;28;19920;-78
2022/03/03 05:21:14;;;;;;;;;;;-4.20;99.90;;;;;;5016635;28;19915;-78
2022/03/03 05:23:39;;;;;;;;;;;-4.20;99.90;;;;;;5030984;28;19943;-79
2022/03/03 05:26:05;;;;;;;;;;;-4.30;99.90;;;;;;5035010;28;19963;-78
2022/03/03 05:28:31;;;;;;;;;;;-4.30;99.90;;;;;;5031259;28;20379;-79
2022/03/03 05:30:56;;;;;;;;;;;-4.30;99.90;;;;;;5034104;28;19917;-78
2022/03/03 05:33:22;;;;;;;;;;;-4.30;99.90;;;;;;5017657;28;19917;-78
2022/03/03 05:35:48;;;;;;;;;;;-4.30;99.90;;;;;;5034386;28;19928;-78
2022/03/03 05:38:14;;;;;;;;;;;-4.30;99.90;;;;;;5034257;28;20347;-79
2022/03/03 05:40:39;;;;;;;;;;;-4.40;99.90;;;;;;5034416;28;19948;-79
2022/03/03 05:43:09;;;;;;;;;;;-4.40;99.90;;;;;;5028912;28;19952;-77
2022/03/03 05:45:35;;;;;;;;;;;-4.40;99.90;;;;;;5032789;28;19968;-78
2022/03/03 05:48:00;;;;;;;;;;;-4.40;99.90;;;;;;5033892;28;19917;-80
2022/03/03 05:50:26;;;;;;;;;;;-4.40;99.90;;;;;;5028692;28;19914;-79
2022/03/03 05:52:52;;;;;;;;;;;-4.40;99.90;;;;;;5033380;28;19924;-79
2022/03/03 05:55:18;;;;;;;;;;;-4.50;99.90;;;;;;5032676;28;20323;-79
2022/03/03 05:57:45;;;;;;;;;;;-4.50;99.90;;;;;;4996525;28;19917;-79
2022/03/03 06:00:12;;;;;;;;;;;-4.50;99.90;;;;;;5018636;28;19942;-78
2022/03/03 06:02:49;;;;;;;;;;;-4.40;99.90;;;;;;5033941;28;20330;-79
2022/03/03 06:05:18;;;;;;;;;;;-4.40;99.90;;;;;;5031946;28;20460;-78
2022/03/03 06:07:45;;;;;;;;;;;-4.30;99.90;;;;;;5032559;28;20459;-78
2022/03/03 06:10:11;;;;;;;;;;;-4.30;99.90;;;;;;5014763;28;19917;-79
2022/03/03 06:12:47;;;;;;;;;;;-4.40;99.90;;;;;;5039540;28;19912;-79
2022/03/03 06:15:13;;;;;;;;;;;-4.40;99.90;;;;;;5023066;28;20392;-78
2022/03/03 06:17:40;;;;;;;;;;;-4.40;99.90;;;;;;5043391;28;19920;-79
2022/03/03 06:20:05;;;;;;;;;;;-4.40;99.90;;;;;;5015019;28;19921;-79
2022/03/03 06:22:31;;;;;;;;;;;-4.40;99.90;;;;;;5033432;28;19917;-79
2022/03/03 06:24:57;;;;;;;;;;;-4.40;99.90;;;;;;5031549;28;20422;-79
2022/03/03 06:27:23;;;;;;;;;;;-4.40;99.90;;;;;;5030048;28;19921;-80
2022/03/03 06:29:48;;;;;;;;;;;-4.40;99.90;;;;;;5032665;28;19928;-79
2022/03/03 06:32:14;;;;;;;;;;;-4.40;99.90;;;;;;5032416;28;19921;-78
2022/03/03 06:34:39;;;;;;;;;;;-4.30;99.90;;;;;;5032108;28;20441;-79
2022/03/03 06:37:05;;;;;;;;;;;-4.30;99.90;;;;;;5031367;28;19924;-81
2022/03/03 06:39:31;;;;;;;;;;;-4.30;99.90;;;;;;5033450;28;20295;-78
2022/03/03 06:41:56;;;;;;;;;;;-4.20;99.90;;;;;;5030630;28;20291;-78
2022/03/03 06:44:22;;;;;;;;;;;-4.20;99.90;;;;;;5022685;28;19913;-78
2022/03/03 06:46:48;;;;;;;;;;;-4.10;99.90;;;;;;5013035;28;19925;-79
2022/03/03 06:49:13;;;;;;;;;;;-4.00;99.90;;;;;;5016629;28;19949;-80
2022/03/03 06:51:41;;;;;;;;;;;-4.00;99.90;;;;;;5020397;28;20338;-77
2022/03/03 06:54:11;;;;;;;;;;;-4.00;99.90;;;;;;5032885;28;20015;-78
2022/03/03 06:56:39;;;;;;;;;;;-3.90;99.90;;;;;;5030575;28;19924;-78
2022/03/03 06:59:05;;;;;;;;;;;-3.80;99.90;;;;;;5027650;28;19913;-78
2022/03/03 07:01:30;;;;;;;;;;;-3.60;99.90;;;;;;5033654;28;19947;-80
2022/03/03 07:03:57;;;;;;;;;;;-3.20;99.90;;;;;;5030808;28;19987;-79
2022/03/03 07:06:23;;;;;;;;;;;-2.70;99.90;;;;;;5009856;28;20936;-79
2022/03/03 07:08:53;;;;;;;;;;;-2.20;99.90;;;;;;5015475;28;20011;-80
2022/03/03 07:11:19;;;;;;;;;;;-1.60;99.90;;;;;;5033403;28;19924;-79
2022/03/03 07:13:45;;;;;;;;;;;-1.00;99.90;;;;;;5031499;28;20434;-80
2022/03/03 07:16:14;;;;;;;;;;;-0.50;99.90;;;;;;5032128;28;19913;-80
2022/03/03 07:18:42;;;;;;;;;;;0.00;99.90;;;;;;5014469;28;19956;-80
2022/03/03 07:21:16;;;;;;;;;;;0.40;99.90;;;;;;5033426;28;19962;-78
2022/03/03 07:23:47;;;;;;;;;;;0.70;99.90;;;;;;5033547;28;19975;-78
2022/03/03 07:26:13;;;;;;;;;;;1.10;99.90;;;;;;5032773;28;19913;-79
2022/03/03 07:28:40;;;;;;;;;;;1.40;99.90;;;;;;5032594;28;20012;-79
2022/03/03 07:31:06;;;;;;;;;;;1.60;99.90;;;;;;5029650;28;19920;-79
2022/03/03 07:33:38;;;;;;;;;;;1.80;99.90;;;;;;5020056;28;19917;-78
2022/03/03 07:36:06;;;;;;;;;;;2.00;99.90;;;;;;5032108;28;19913;-78
2022/03/03 07:38:34;;;;;;;;;;;2.10;99.90;;;;;;4996927;28;19964;-78
2022/03/03 07:41:01;;;;;;;;;;;2.20;99.90;;;;;;5025404;28;19971;-79
2022/03/03 07:43:27;;;;;;;;;;;2.30;99.90;;;;;;5035185;28;19996;-79
2022/03/03 07:45:52;;;;;;;;;;;2.30;99.90;;;;;;5037733;28;19951;-78
2022/03/03 07:48:21;;;;;;;;;;;2.30;99.90;;;;;;5036322;28;19921;-79
2022/03/03 07:50:47;;;;;;;;;;;2.40;99.90;;;;;;5024282;28;20181;-78
2022/03/03 07:53:13;;;;;;;;;;;2.50;99.90;;;;;;5042935;28;19971;-79
2022/03/03 07:55:41;;;;;;;;;;;2.60;99.90;;;;;;5037426;28;20007;-79
2022/03/03 07:58:11;;;;;;;;;;;2.70;99.90;;;;;;5031322;28;20586;-77
2022/03/03 08:00:40;;;;;;;;;;;2.70;99.90;;;;;;5036139;28;19913;-77
2022/03/03 08:03:09;;;;;;;;;;;2.80;99.90;;;;;;5033210;28;19928;-79
2022/03/03 08:05:35;;;;;;;;;;;2.90;99.90;;;;;;5020889;28;20014;-79
2022/03/03 08:08:02;;;;;;;;;;;2.80;99.90;;;;;;5030227;28;20352;-79
2022/03/03 08:10:28;;;;;;;;;;;2.70;99.90;;;;;;5020599;28;20606;-79
2022/03/03 08:12:55;;;;;;;;;;;2.40;99.90;;;;;;5033506;28;19917;-78
2022/03/03 08:15:21;;;;;;;;;;;2.40;99.90;;;;;;5034441;28;19913;-79
2022/03/03 08:17:51;;;;;;;;;;;2.30;99.90;;;;;;5031896;28;20312;-79
2022/03/03 08:20:17;;;;;;;;;;;2.10;99.90;;;;;;5035014;28;20500;-78
2022/03/03 08:22:43;;;;;;;;;;;2.10;99.90;;;;;;5014457;28;19920;-79
2022/03/03 08:25:10;;;;;;;;;;;2.10;99.90;;;;;;5030147;28;19923;-78
2022/03/03 08:27:37;;;;;;;;;;;2.10;99.90;;;;;;5028545;28;20345;-78
2022/03/03 08:30:03;;;;;;;;;;;2.10;99.90;;;;;;5030948;28;19917;-78
2022/03/03 08:32:31;;;;;;;;;;;2.10;99.90;;;;;;5031475;28;19952;-78
2022/03/03 08:35:07;;;;;;;;;;;2.10;99.90;;;;;;5031401;28;19936;-79
2022/03/03 08:37:38;;;;;;;;;;;2.10;99.90;;;;;;5001061;28;19914;-79
2022/03/03 08:40:05;;;;;;;;;;;2.10;99.90;;;;;;5025207;28;19920;-78
2022/03/03 08:42:35;;;;;;;;;;;2.10;99.90;;;;;;5030835;28;19975;-78
2022/03/03 08:45:03;;;;;;;;;;;2.10;99.90;;;;;;5009957;28;19928;-78
2022/03/03 08:47:29;;;;;;;;;;;2.00;99.90;;;;;;5016054;28;19979;-79
2022/03/03 08:49:57;;;;;;;;;;;2.00;99.90;;;;;;5015688;28;20008;-78
2022/03/03 08:52:23;;;;;;;;;;;2.00;99.90;;;;;;5011277;28;19971;-78
2022/03/03 08:54:48;;;;;;;;;;;2.10;99.90;;;;;;5013294;28;19925;-77
2022/03/03 08:57:14;;;;;;;;;;;2.10;99.90;;;;;;5008572;28;19924;-77
2022/03/03 08:59:40;;;;;;;;;;;2.10;99.90;;;;;;5020958;28;20375;-78
2022/03/03 09:02:05;;;;;;;;;;;2.10;99.90;;;;;;5010776;28;19917;-78
2022/03/03 09:04:31;;;;;;;;;;;2.10;99.90;;;;;;5028676;28;20676;-78
2022/03/03 09:06:57;;;;;;;;;;;2.10;99.90;;;;;;5026878;28;19984;-77
2022/03/03 09:09:24;;;;;;;;;;;2.10;99.90;;;;;;5009276;28;20351;-78
2022/03/03 09:11:50;;;;;;;;;;;2.10;99.90;;;;;;5017140;28;19925;-77
2022/03/03 09:14:15;;;;;;;;;;;2.30;99.90;;;;;;5028955;28;19932;-78
2022/03/03 09:16:41;;;;;;;;;;;2.20;99.90;;;;;;5029150;28;19918;-77
2022/03/03 09:19:07;;;;;;;;;;;2.30;99.90;;;;;;5030071;28;19917;-78
2022/03/03 09:21:32;;;;;;;;;;;2.30;99.90;;;;;;5030667;28;20028;-78
2022/03/03 09:23:58;;;;;;;;;;;2.30;99.90;;;;;;5031150;28;19960;-77
2022/03/03 09:26:24;;;;;;;;;;;2.30;99.90;;;;;;5031170;28;20394;-78
2022/03/03 09:28:49;;;;;;;;;;;2.30;99.90;;;;;;5031539;28;19917;-77
2022/03/03 09:31:15;;;;;;;;;;;2.40;99.90;;;;;;5026010;28;19966;-78
2022/03/03 09:33:40;;;;;;;;;;;2.40;99.90;;;;;;5030000;28;19913;-77
2022/03/03 09:36:06;;;;;;;;;;;2.40;99.90;;;;;;5028645;28;20008;-77
2022/03/03 09:38:32;;;;;;;;;;;2.30;99.90;;;;;;5029691;28;19914;-77
2022/03/03 09:40:58;;;;;;;;;;;2.30;99.90;;;;;;5025392;28;19928;-77
2022/03/03 09:43:23;;;;;;;;;;;2.40;99.90;;;;;;5010754;28;20016;-77
2022/03/03 09:45:49;;;;;;;;;;;2.40;99.90;;;;;;5028255;28;19921;-77
2022/03/03 09:48:15;;;;;;;;;;;2.40;99.90;;;;;;5031852;28;19963;-77
2022/03/03 09:50:41;;;;;;;;;;;2.40;99.90;;;;;;5031206;28;19921;-77
2022/03/03 09:53:08;;;;;;;;;;;2.40;99.90;;;;;;5029845;28;19916;-77
2022/03/03 09:55:34;;;;;;;;;;;2.50;99.90;;;;;;5030462;28;19913;-77
2022/03/03 09:57:59;;;;;;;;;;;2.50;99.90;;;;;;5030891;28;19917;-77
2022/03/03 10:00:26;;;;;;;;;;;2.70;99.90;;;;;;5031562;28;19955;-77
2022/03/03 10:02:59;;;;;;;;;;;2.80;99.90;;;;;;5031724;28;19921;-77
2022/03/03 10:05:50;;;;;;;;;;;2.90;99.90;;;;;;5030244;28;19913;-76
2022/03/03 10:08:23;;;;;;;;;;;3.00;99.90;;;;;;5023963;28;19948;-77
2022/03/03 10:10:53;;;;;;;;;;;3.10;99.90;;;;;;5011746;28;20300;-77
2022/03/03 10:13:19;;;;;;;;;;;3.20;99.90;;;;;;5007691;28;20346;-76
2022/03/03 10:15:45;;;;;;;;;;;3.30;99.90;;;;;;5029990;28;19913;-76
2022/03/03 10:18:14;;;;;;;;;;;3.40;99.90;;;;;;5030603;28;19913;-76
2022/03/03 10:20:46;;;;;;;;;;;3.50;99.90;;;;;;5027092;28;20311;-76
2022/03/03 10:23:12;;;;;;;;;;;3.70;99.90;;;;;;5031004;28;19960;-77
2022/03/03 10:25:39;;;;;;;;;;;3.80;99.90;;;;;;5025523;28;19925;-76
2022/03/03 10:28:14;;;;;;;;;;;3.90;99.90;;;;;;5030246;28;19917;-76
2022/03/03 10:30:49;;;;;;;;;;;4.00;99.90;;;;;;5010256;28;19921;-76
2022/03/03 10:33:16;;;;;;;;;;;4.00;99.90;;;;;;5026669;28;19913;-77
2022/03/03 10:35:41;;;;;;;;;;;4.20;99.90;;;;;;5029271;28;19917;-77
2022/03/03 10:38:07;;;;;;;;;;;4.20;99.90;;;;;;5030183;28;19924;-77
2022/03/03 10:40:36;;;;;;;;;;;4.20;99.90;;;;;;5029001;28;19914;-76
2022/03/03 10:43:01;;;;;;;;;;;4.30;99.90;;;;;;5013050;28;19913;-76
2022/03/03 10:45:27;;;;;;;;;;;4.30;99.90;;;;;;5021597;28;20339;-78
2022/03/03 10:48:00;;;;;;;;;;;4.40;99.90;;;;;;5028732;28;19968;-77
2022/03/03 10:50:26;;;;;;;;;;;4.40;98.70;;;;;;5029797;28;19919;-77
2022/03/03 10:52:51;;;;;;;;;;;4.50;99.50;;;;;;5029572;28;19917;-78
2022/03/03 10:55:17;;;;;;;;;;;4.70;99.20;;;;;;5012704;28;19909;-77
2022/03/03 10:57:45;;;;;;;;;;;4.80;99.90;;;;;;5029417;28;20320;-78
2022/03/03 11:00:12;;;;;;;;;;;5.00;96.90;;;;;;5023951;28;20011;-78
2022/03/03 11:02:39;;;;;;;;;;;5.20;92.10;;;;;;5028115;28;19928;-77
2022/03/03 11:05:05;;;;;;;;;;;5.40;90.00;;;;;;5028225;28;20112;-76
2022/03/03 11:07:32;;;;;;;;;;;5.40;91.40;;;;;;5048140;22;20439;-88
2022/03/03 11:10:12;;;;;;;;;;;5.40;90.70;;;;;;5010944;28;19959;-91
2022/03/03 11:16:32;;;;;;;;;;;5.40;88.90;;;;;;5018046;28;20518;-88
2022/03/03 11:18:58;;;;;;;;;;;5.50;80.00;;;;;;5013241;28;19921;-90
2022/03/03 11:21:24;;;;;;;;;;;5.60;81.80;;;;;;5013744;28;19917;-89
2022/03/03 11:24:17;;;;;;;;;;;5.70;83.50;;;;;;5011573;28;20307;-90
2022/03/03 11:26:44;;;;;;;;;;;5.80;73.20;;;;;;5015734;28;19913;-91
2022/03/03 11:29:23;;;;;;;;;;;5.80;74.60;;;;;;5017853;28;20317;-91
2022/03/03 11:32:04;;;;;;;;;;;5.80;74.40;;;;;;5018129;28;20016;-91
2022/03/03 11:34:36;;;;;;;;;;;5.80;75.70;;;;;;5034967;28;19968;-90
2022/03/03 11:37:06;;;;;;;;;;;5.90;75.70;;;;;;5016806;28;20433;-90
2022/03/03 11:39:37;;;;;;;;;;;5.90;74.70;;;;;;5034732;28;19913;-91
2022/03/03 11:42:21;;;;;;;;;;;6.00;70.20;;;;;;5034708;28;19960;-89
2022/03/03 11:44:51;;;;;;;;;;;6.10;69.20;;;;;;5012543;28;19914;-90
2022/03/03 11:47:19;;;;;;;;;;;6.30;69.50;;;;;;5022459;28;20387;-90
2022/03/03 11:49:57;;;;;;;;;;;6.30;73.40;;;;;;5018437;28;19952;-90
2022/03/03 11:52:23;;;;;;;;;;;6.40;73.80;;;;;;5023240;28;20003;-89
2022/03/03 11:54:52;;;;;;;;;;;6.40;71.80;;;;;;5017203;28;19909;-90
2022/03/03 11:57:18;;;;;;;;;;;6.50;71.20;;;;;;5039979;28;19913;-89
2022/03/03 11:59:47;;;;;;;;;;;6.50;72.50;;;;;;5033695;28;20109;-89
2022/03/03 12:02:26;;;;;;;;;;;6.50;69.90;;;;;;5014063;28;20307;-89
2022/03/03 12:05:10;;;;;;;;;;;6.50;67.90;;;;;;5013734;28;19913;-89
2022/03/03 12:07:36;;;;;;;;;;;6.50;66.50;;;;;;5008170;28;19924;-88
2022/03/03 12:10:11;;;;;;;;;;;6.50;66.10;;;;;;5016268;28;19917;-87
2022/03/03 12:12:37;;;;;;;;;;;6.50;63.20;;;;;;5013392;28;19917;-86
2022/03/03 12:15:04;;;;;;;;;;;6.50;65.70;;;;;;5014050;28;19921;-89
2022/03/03 12:17:33;;;;;;;;;;;6.60;65.00;;;;;;5016355;28;20002;-88
2022/03/03 12:20:18;;;;;;;;;;;6.60;67.60;;;;;;4990374;28;19959;-90
2022/03/03 12:23:02;;;;;;;;;;;6.70;67.20;;;;;;5026040;28;20036;-86
2022/03/03 12:25:48;;;;;;;;;;;6.70;67.20;;;;;;5000320;28;20387;-87
2022/03/03 12:28:17;;;;;;;;;;;6.90;68.20;;;;;;5031386;28;19917;-89
2022/03/03 12:30:44;;;;;;;;;;;6.90;68.80;;;;;;5012881;28;19916;-87
2022/03/03 12:33:19;;;;;;;;;;;7.00;71.70;;;;;;5029108;28;20284;-87
2022/03/03 12:35:44;;;;;;;;;;;7.10;72.10;;;;;;5017068;28;19953;-87
2022/03/03 12:38:11;;;;;;;;;;;7.10;71.60;;;;;;5014706;28;20384;-91
2022/03/03 12:40:37;;;;;;;;;;;7.20;71.00;;;;;;5033311;28;19944;-88
2022/03/03 12:43:02;;;;;;;;;;;7.30;70.80;;;;;;5029338;28;19910;-89
2022/03/03 12:45:31;;;;;;;;;;;7.30;70.40;;;;;;5015715;28;20491;-89
2022/03/03 12:47:58;;;;;;;;;;;7.40;71.70;;;;;;4998817;28;19967;-87
2022/03/03 12:50:29;;;;;;;;;;;7.40;73.20;;;;;;5033051;28;19956;-90
2022/03/03 12:52:55;;;;;;;;;;;7.50;70.80;;;;;;5016020;28;20005;-86
2022/03/03 12:55:25;;;;;;;;;;;7.50;71.10;;;;;;5015959;28;20431;-88
2022/03/03 12:57:51;;;;;;;;;;;7.50;67.90;;;;;;5014238;28;20401;-89
2022/03/03 13:00:17;;;;;;;;;;;7.60;67.40;;;;;;5015384;28;19944;-91
2022/03/03 13:02:56;;;;;;;;;;;7.70;63.50;;;;;;5008742;28;19917;-87
2022/03/03 13:05:36;;;;;;;;;;;7.70;64.30;;;;;;5012085;28;20025;-89
2022/03/03 13:08:02;;;;;;;;;;;7.60;66.60;;;;;;4991356;28;19928;-91
2022/03/03 13:10:29;;;;;;;;;;;7.70;67.70;;;;;;5016259;28;20027;-90
2022/03/03 13:12:55;;;;;;;;;;;7.70;68.00;;;;;;5016416;28;19924;-89
2022/03/03 13:15:29;;;;;;;;;;;7.70;68.70;;;;;;5030477;28;19917;-87
2022/03/03 13:18:14;;;;;;;;;;;7.70;67.50;;;;;;5007238;28;19921;-90
2022/03/03 13:20:42;;;;;;;;;;;7.80;65.70;;;;;;5015048;28;19940;-88
2022/03/03 13:23:14;;;;;;;;;;;7.80;63.70;;;;;;5012671;28;20422;-88
2022/03/03 13:25:41;;;;;;;;;;;7.80;63.40;;;;;;5004729;28;19944;-88
2022/03/03 13:28:07;;;;;;;;;;;7.80;65.90;;;;;;5014500;28;20272;-92
2022/03/03 13:30:33;;;;;;;;;;;7.80;60.50;;;;;;5033016;28;20283;-91
2022/03/03 13:32:59;;;;;;;;;;;7.80;64.80;;;;;;5015917;28;19913;-88
2022/03/03 13:35:26;;;;;;;;;;;7.80;63.40;;;;;;5015909;28;19917;-90
2022/03/03 13:37:52;;;;;;;;;;;7.80;63.10;;;;;;5016690;28;19914;-90
2022/03/03 13:40:20;;;;;;;;;;;7.70;59.70;;;;;;5008478;28;19928;-89
2022/03/03 13:42:46;;;;;;;;;;;7.70;59.40;;;;;;5032324;28;19963;-89
2022/03/03 13:45:12;;;;;;;;;;;7.70;58.00;;;;;;5016422;28;20378;-89
2022/03/03 13:47:42;;;;;;;;;;;7.70;60.80;;;;;;5014073;28;19986;-87
2022/03/03 13:50:15;;;;;;;;;;;7.80;60.10;;;;;;5031506;28;19920;-88
2022/03/03 13:52:41;;;;;;;;;;;7.90;61.60;;;;;;5012487;28;19959;-86
2022/03/03 13:55:11;;;;;;;;;;;8.00;61.30;;;;;;5012263;28;20328;-86
2022/03/03 13:57:38;;;;;;;;;;;8.00;57.60;;;;;;5010101;28;19953;-87
2022/03/03 14:00:06;;;;;;;;;;;8.00;56.60;;;;;;5011131;28;20138;-84
2022/03/03 14:02:31;;;;;;;;;;;8.00;57.10;;;;;;5012911;28;19999;-87
2022/03/03 14:04:57;;;;;;;;;;;7.90;54.50;;;;;;5010113;28;20051;-86
2022/03/03 14:07:27;;;;;;;;;;;7.70;55.80;;;;;;5023448;28;20261;-90
2022/03/03 14:09:56;;;;;;;;;;;7.60;56.80;;;;;;5026463;28;19913;-89
2022/03/03 14:12:22;;;;;;;;;;;7.50;57.60;;;;;;5012148;28;19924;-87
2022/03/03 14:14:48;;;;;;;;;;;7.40;57.70;;;;;;5003071;28;19917;-86
2022/03/03 14:17:13;;;;;;;;;;;7.30;58.70;;;;;;5026925;28;20287;-86
2022/03/03 14:19:41;;;;;;;;;;;7.20;58.70;;;;;;4996841;28;19920;-87
2022/03/03 14:22:07;;;;;;;;;;;7.10;58.60;;;;;;5010918;28;19925;-87
2022/03/03 14:24:34;;;;;;;;;;;7.10;58.10;;;;;;5009659;28;19957;-87
2022/03/03 14:26:59;;;;;;;;;;;7.00;57.40;;;;;;4998211;28;19920;-87
2022/03/03 14:29:25;;;;;;;;;;;7.00;55.70;;;;;;4993731;28;19928;-86